Airfield :
LOGIN :

Register | Disclaimer

   EN    FR    IT 

 










Legend :    VFR   Marginal VFR   IFR   Intensive IFR   Very Intensive IFR
Visi :
Ceiling :
>= 8 km
>= 3000ft
5 to 8 km
1000 to 3000 ft
1500m to 5 km
500 to 1000 ft
800 to 1500m
200 to 500 ft
< 800m
< 200 ft
Symbols :   Thunderstorms  Fog  Heavy snow  Heavy precipitations  Wind > 20 kt
SIGMETs :     Misc.  Thunderstorms  Icing  Turbulence  Mountain Waves  Volcanic Ashes







- Airport Elevation : 42 ft
- IATA code : CAL
- Download approach charts


EGEC - Campbeltown

CURRENT METAR :
  • 230920Z 36003KT 3800 DZ BR FEW003 BKN016 16/16 Q1012

EXPIRED METARs :
  • 230850Z 36004KT 3000 DZ BR BKN006 SCT020 16/16 Q1012
  • 230820Z 36005KT 3000 DZ BR FEW003 BKN020 16/16 Q1013
  • 230720Z 36010KT 9999 FEW012 BKN019 19/16 Q1012
  • 230650Z 36008KT 9999 FEW011 BKN020 19/16 Q1012

TAF TAF EGEC
Valid from the 23 at 09:00 until the 23 at 17:00 UTC


230756Z 2309/2317 32008KT 9999 SCT020
TEMPO 2309/2317 6000 -RA BKN012
PROB30
TEMPO 2309/2312 4000 RADZ BKN004
No reported NOTAMs for that airfield.



MET'MAP, your aeronautical weather chart ! - Copyright ORBIFLY December 2007 - Disclaimer

ORBIFLY MET'MAP TEAM :

Programming & Development : Alexandra Zaïnal
Concept & Development : Baudouin d'Aumeries
Co-Development & Prog : Marc-Olivier Méhu
Technical & hardware support : Manuel Goepfert

Contact : metmap@orbifly.com




SOURCES & CREDITS :

   NOAA